Js Ineos Intrepid — OWKN2 — position and weather

sailwx.info

Track history (hours):
 
Tides and Currents Weather Stations Pressure Air Temp Water Temp Dewpoint Dewpoint Depression Visibility Wind Speed Wind Dir Waves Ship Positions

Js Ineos Intrepid

Last reported at 2018-Feb-24 04:48 UTC. Time now 2018-Feb-25 08:16 UTC.
Position N 49°38' W 004°37'.

Length 180 m; draft 7.7 m.

Type: Ship (hazmat cat A). MMSI: 219676000.

Date/timePositionNaut miles runAvg speedWind from/ knotsBaromVisibWave heightAir tempDewpointWater temp
2018-Feb-24 04:48N 49°38' W 004°37'916.3
2018-Feb-24 04:16N 49°39' W 004°24'1216.2
2018-Feb-24 03:33N 49°43' W 004°07'116.1
2018-Feb-24 03:28N 49°43' W 004°05'1315.9
2018-Feb-24 02:39N 49°49' W 003°47'315.7
2018-Feb-24 02:29N 49°50' W 003°43'815.4
2018-Feb-24 01:58N 49°52' W 003°31'715.0
2018-Feb-24 01:31N 49°54' W 003°21'814.8
2018-Feb-24 01:00N 49°57' W 003°10'714.6
2018-Feb-24 00:30N 49°60' W 002°60'714.6
2018-Feb-24 00:00N 50°01' W 002°49'714.6
2018-Feb-23 23:30N 50°03' W 002°38'814.7
2018-Feb-23 22:59N 50°04' W 002°26'1615.4
2018-Feb-23 21:57N 50°08' W 002°02'716.2
2018-Feb-23 21:30N 50°10' W 001°51'816.8
2018-Feb-23 21:00N 50°13' W 001°39'917.3
2018-Feb-23 20:30N 50°15' W 001°26'917.6
2018-Feb-23 20:00N 50°17' W 001°12'1018.0
2018-Feb-23 19:28N 50°20' W 000°58'1417.7
2018-Feb-23 18:42N 50°23' W 000°37'417.5
2018-Feb-23 18:28N 50°25' W 000°31'817.2
2018-Feb-23 18:00N 50°27' W 000°19'816.8
2018-Feb-23 17:30N 50°29' W 000°06'816.5
2018-Feb-23 17:00N 50°31' E 000°06'816.1
2018-Feb-23 16:30N 50°33' E 000°18'815.6
2018-Feb-23 16:00N 50°35' E 000°30'815.2
2018-Feb-23 15:30N 50°39' E 000°41'815.2
2018-Feb-23 15:00N 50°43' E 000°51'815.2
2018-Feb-23 14:30N 50°47' E 001°01'815.6
2018-Feb-23 14:00N 50°52' E 001°11'816.2
2018-Feb-23 13:31N 50°57' E 001°21'917.6
2018-Feb-23 13:00N 51°03' E 001°30'918.3
2018-Feb-23 12:30N 51°10' E 001°41'917.6
2018-Feb-23 12:00N 51°17' E 001°49'917.3
2018-Feb-23 11:30N 51°25' E 001°55'816.5
2018-Feb-23 11:00N 51°31' E 002°04'816.2
2018-Feb-23 10:30N 51°36' E 002°14'815.8
2018-Feb-23 10:00N 51°42' E 002°21'612.3
2018-Feb-23 09:30N 51°47' E 002°27'43715.2
2018-Feb-22 04:49N 57°46' E 009°39'516.7
2018-Feb-22 04:30N 57°47' E 009°49'816.7
2018-Feb-22 04:00N 57°49' E 010°05'816.9
2018-Feb-22 03:30N 57°49' E 010°20'917.1
2018-Feb-22 03:00N 57°50' E 010°36'612.4
2018-Feb-22 02:30N 57°49' E 010°48'611.7
2018-Feb-22 02:00N 57°44' E 010°43'3 6.1
2018-Feb-22 01:27N 57°41' E 010°39'0 0.2
2018-Feb-22 00:57N 57°41' E 010°39'0 0.0
2018-Feb-22 00:30N 57°41' E 010°39'0 0.0
2018-Feb-21 23:57N 57°41' E 010°39'0 0.0
2018-Feb-21 23:30N 57°41' E 010°39'0 0.0
2018-Feb-21 23:00N 57°41' E 010°39'0 0.0
2018-Feb-21 22:30N 57°41' E 010°39'0 0.0
2018-Feb-21 21:57N 57°41' E 010°39'0 0.0
2018-Feb-21 21:30N 57°41' E 010°39'0 0.0
2018-Feb-21 21:00N 57°41' E 010°39'0 0.1
2018-Feb-21 20:30N 57°41' E 010°39'0 0.8
2018-Feb-21 20:00N 57°42' E 010°39'4 8.3
2018-Feb-21 19:30N 57°44' E 010°45'611.7
2018-Feb-21 19:00N 57°50' E 010°42'815.3
2018-Feb-21 18:30N 57°56' E 010°34'816.9
2018-Feb-21 18:01N 58°03' E 010°25'816.7
2018-Feb-21 17:31N 58°10' E 010°16'3316.8
2018-Feb-21 15:34N 58°40' E 009°51'117.1
2018-Feb-21 15:30N 58°41' E 009°50'917.2
2018-Feb-21 15:00N 58°49' E 009°47'510.3
2018-Feb-21 14:30N 58°55' E 009°46'611.4
2018-Feb-21 13:59N 59°00' E 009°47'4 8.1
2018-Feb-21 13:30N 59°03' E 009°41'4 7.4
2018-Feb-21 13:00N 59°06' E 009°37'1 1.0
2018-Feb-21 12:30N 59°06' E 009°36'0 0.0
2018-Feb-21 12:00N 59°06' E 009°36'0 0.0
2018-Feb-21 11:30N 59°06' E 009°36'0 0.0
2018-Feb-21 11:00N 59°06' E 009°36'0 0.0
2018-Feb-21 10:30N 59°06' E 009°36'0 0.0
2018-Feb-21 10:00N 59°06' E 009°36'0 0.0
2018-Feb-21 09:30N 59°06' E 009°36'0 0.0
2018-Feb-21 09:00N 59°06' E 009°36'0 0.0
2018-Feb-21 08:30N 59°06' E 009°36'0 0.0
2018-Feb-21 08:00N 59°06' E 009°36'0 0.0
2018-Feb-21 07:30N 59°06' E 009°36'0 0.0
2018-Feb-21 07:00N 59°06' E 009°36'0 0.0
2018-Feb-21 06:30N 59°06' E 009°36'0 0.0
2018-Feb-21 06:00N 59°06' E 009°36'0 0.0
2018-Feb-21 05:30N 59°06' E 009°36'0 0.0
2018-Feb-21 05:00N 59°06' E 009°36'0 0.0
2018-Feb-21 04:30N 59°06' E 009°36'0 0.0
2018-Feb-21 04:00N 59°06' E 009°36'0 0.0
2018-Feb-21 03:30N 59°06' E 009°36'0 0.0
2018-Feb-21 03:00N 59°06' E 009°36'0 0.0
2018-Feb-21 02:30N 59°06' E 009°36'0 0.0
2018-Feb-21 02:00N 59°06' E 009°36'0 0.0
2018-Feb-21 01:30N 59°06' E 009°36'0 0.0
2018-Feb-21 01:00N 59°06' E 009°36'0 0.0
2018-Feb-21 00:30N 59°06' E 009°36'0 0.0
2018-Feb-21 00:00N 59°06' E 009°36'0 0.0
2018-Feb-20 23:30N 59°06' E 009°36'0 0.0
2018-Feb-20 23:00N 59°06' E 009°36'0 0.0
2018-Feb-20 22:30N 59°06' E 009°36'0 0.0
2018-Feb-20 22:00N 59°06' E 009°36'0 0.0
2018-Feb-20 21:30N 59°06' E 009°36'0 0.0
2018-Feb-20 21:00N 59°06' E 009°36'0 0.0
2018-Feb-20 20:30N 59°06' E 009°36'0 0.0
2018-Feb-20 20:00N 59°06' E 009°36'0 0.0
2018-Feb-20 19:30N 59°06' E 009°36'0 0.0
2018-Feb-20 19:00N 59°06' E 009°36'0 0.0
2018-Feb-20 18:30N 59°06' E 009°36'0 0.0
2018-Feb-20 18:00N 59°06' E 009°36'0 0.0
2018-Feb-20 17:30N 59°06' E 009°36'0 0.0
2018-Feb-20 17:00N 59°06' E 009°36'0 0.0
2018-Feb-20 16:30N 59°06' E 009°36'0 0.0
2018-Feb-20 16:00N 59°06' E 009°36'0 0.0
2018-Feb-20 15:30N 59°06' E 009°36'0 0.0
2018-Feb-20 15:00N 59°06' E 009°36'0 0.0
2018-Feb-20 14:30N 59°06' E 009°36'0 0.0
2018-Feb-20 14:00N 59°06' E 009°36'0 0.0
2018-Feb-20 13:30N 59°06' E 009°36'0 0.0
2018-Feb-20 13:00N 59°06' E 009°36'0 0.0
2018-Feb-20 12:30N 59°06' E 009°36'0 0.0
2018-Feb-20 12:00N 59°06' E 009°36'0 0.0
2018-Feb-20 11:30N 59°06' E 009°36'0 0.0
2018-Feb-20 11:00N 59°06' E 009°36'0 0.0
2018-Feb-20 10:30N 59°06' E 009°36'0 0.0
2018-Feb-20 10:00N 59°06' E 009°36'0 0.0
2018-Feb-20 09:30N 59°06' E 009°36'0 0.0
2018-Feb-20 09:00N 59°06' E 009°36'0 0.0
2018-Feb-20 08:30N 59°06' E 009°36'0 0.0
2018-Feb-20 08:00N 59°06' E 009°36'0 0.0
2018-Feb-20 07:30N 59°06' E 009°36'0 0.0
2018-Feb-20 07:00N 59°06' E 009°36'0 0.0
2018-Feb-20 06:30N 59°06' E 009°36'0 0.0
2018-Feb-20 06:00N 59°06' E 009°36'0 0.0
2018-Feb-20 05:30N 59°06' E 009°36'0 0.0
2018-Feb-20 05:00N 59°06' E 009°36'0 0.0
2018-Feb-20 04:30N 59°06' E 009°36'0 0.0
2018-Feb-20 04:00N 59°06' E 009°36'0 0.0
2018-Feb-20 03:30N 59°06' E 009°36'0 0.0
2018-Feb-20 03:00N 59°06' E 009°36'1 1.1
2018-Feb-20 02:30N 59°06' E 009°37'1 1.6
2018-Feb-20 01:59N 59°06' E 009°37'0 0.0
2018-Feb-20 01:29N 59°06' E 009°37'0 0.0
2018-Feb-20 00:59N 59°06' E 009°37'0 0.0
2018-Feb-20 00:29N 59°06' E 009°37'0 0.0
2018-Feb-19 23:59N 59°06' E 009°37'0 0.0
2018-Feb-19 23:29N 59°06' E 009°37'0 0.1
2018-Feb-19 22:59N 59°06' E 009°37'0 0.0
2018-Feb-19 22:29N 59°06' E 009°37'0 0.1
2018-Feb-19 21:59N 59°06' E 009°37'0 0.0
2018-Feb-19 21:29N 59°06' E 009°37'0 0.0
2018-Feb-19 20:59N 59°06' E 009°37'0 0.0
2018-Feb-19 20:29N 59°06' E 009°37'0 0.0
2018-Feb-19 19:59N 59°06' E 009°37'0 0.0
2018-Feb-19 19:29N 59°06' E 009°37'0 0.0
2018-Feb-19 18:59N 59°06' E 009°37'0 0.0
2018-Feb-19 18:29N 59°06' E 009°37'0 0.0
2018-Feb-19 17:59N 59°06' E 009°37'0 0.0
2018-Feb-19 17:29N 59°06' E 009°37'0 0.1
2018-Feb-19 16:59N 59°06' E 009°37'0 0.0
2018-Feb-19 16:29N 59°06' E 009°37'0 0.0
2018-Feb-19 15:59N 59°06' E 009°37'0 0.0
2018-Feb-19 15:29N 59°06' E 009°37'0 0.0
2018-Feb-19 14:59N 59°06' E 009°37'0 0.0
2018-Feb-19 14:29N 59°06' E 009°37'0 0.0
2018-Feb-19 13:59N 59°06' E 009°37'0 0.0
2018-Feb-19 13:29N 59°06' E 009°37'0 0.0
2018-Feb-19 12:59N 59°06' E 009°37'0 0.0
2018-Feb-19 12:29N 59°06' E 009°37'0 0.0
2018-Feb-19 11:59N 59°06' E 009°37'0 0.1
2018-Feb-19 11:29N 59°06' E 009°37'2 4.1
2018-Feb-19 11:00N 59°05' E 009°38'3 6.8
2018-Feb-19 10:30N 59°02' E 009°43'4 7.3
2018-Feb-19 10:01N 58°59' E 009°47'3 5.9
2018-Feb-19 09:30N 58°56' E 009°47'5 9.5
2018-Feb-19 09:00N 58°52' E 009°49'3 6.6
2018-Feb-19 08:30N 58°48' E 009°50'4 7.5
2018-Feb-19 08:00N 58°45' E 009°51'510.1
2018-Feb-19 07:31N 58°40' E 009°55'7513.5
2018-Feb-19 01:59N 57°39' E 008°32'715.5
2018-Feb-19 01:30N 57°34' E 008°22'816.1
2018-Feb-19 00:59N 57°29' E 008°10'815.8
2018-Feb-19 00:29N 57°24' E 007°58'35616.1
2018-Feb-18 02:18N 52°16' E 002°47'716.1
2018-Feb-18 01:50N 52°10' E 002°41'516.3
2018-Feb-18 01:30N 52°04' E 002°42'915.4
2018-Feb-18 00:56N 51°55' E 002°40'715.5
2018-Feb-18 00:29N 51°49' E 002°37'715.1
2018-Feb-18 00:00N 51°43' E 002°30'714.8
2018-Feb-17 23:30N 51°37' E 002°23'714.4
2018-Feb-17 23:00N 51°31' E 002°16'714.0
2018-Feb-17 22:31N 51°25' E 002°12'713.6
2018-Feb-17 22:00N 51°18' E 002°08'612.9
2018-Feb-17 21:30N 51°13' E 002°02'612.8
2018-Feb-17 21:00N 51°10' E 001°53'612.4
2018-Feb-17 20:30N 51°07' E 001°45'612.3
2018-Feb-17 20:00N 51°02' E 001°39'612.4
2018-Feb-17 19:30N 50°58' E 001°31'612.9
2018-Feb-17 19:01N 50°52' E 001°26'713.8
2018-Feb-17 18:30N 50°46' E 001°22'713.5
2018-Feb-17 17:59N 50°40' E 001°16'714.5
2018-Feb-17 17:29N 50°35' E 001°08'1613.8
2018-Feb-17 16:20N 50°28' E 000°45'514.5
2018-Feb-17 16:00N 50°27' E 000°38'914.5
2018-Feb-17 15:21N 50°25' E 000°23'514.4
2018-Feb-17 15:00N 50°24' E 000°16'714.4
2018-Feb-17 14:30N 50°22' E 000°05'714.5
2018-Feb-17 14:00N 50°20' W 000°06'714.6
2018-Feb-17 13:31N 50°18' W 000°17'714.7
2018-Feb-17 13:00N 50°17' W 000°28'815.1
2018-Feb-17 12:30N 50°15' W 000°40'815.9
2018-Feb-17 12:00N 50°13' W 000°52'816.8
2018-Feb-17 11:30N 50°10' W 001°05'917.3
2018-Feb-17 11:00N 50°07' W 001°17'918.1
2018-Feb-17 10:30N 50°05' W 001°31'918.4
2018-Feb-17 10:01N 50°02' W 001°44'918.9
2018-Feb-17 09:31N 49°60' W 001°59'1019.0
2018-Feb-17 09:00N 49°58' W 002°13'2018.4
2018-Feb-17 07:55N 49°53' W 002°43'817.7
2018-Feb-17 07:29N 49°50' W 002°54'  
Track history (hours):
 
Tides and Currents Weather Stations Pressure Air Temp Water Temp Dewpoint Dewpoint Depression Visibility Wind Speed Wind Dir Waves Ship Positions

Js Ineos Intrepid

Last reported at 2018-Feb-24 04:48 UTC. Time now 2018-Feb-25 08:16 UTC.
Position N 49°38' W 004°37'.

Length 180 m; draft 7.7 m.

Type: Ship (hazmat cat A). MMSI: 219676000.

Date/timePositionNaut miles runAvg speedWind from/ knotsBaromVisibWave heightAir tempDewpointWater temp
2018-Feb-24 04:48N 49°38' W 004°37'916.3
2018-Feb-24 04:16N 49°39' W 004°24'1216.2
2018-Feb-24 03:33N 49°43' W 004°07'116.1
2018-Feb-24 03:28N 49°43' W 004°05'1315.9
2018-Feb-24 02:39N 49°49' W 003°47'315.7
2018-Feb-24 02:29N 49°50' W 003°43'815.4
2018-Feb-24 01:58N 49°52' W 003°31'715.0
2018-Feb-24 01:31N 49°54' W 003°21'814.8
2018-Feb-24 01:00N 49°57' W 003°10'714.6
2018-Feb-24 00:30N 49°60' W 002°60'714.6
2018-Feb-24 00:00N 50°01' W 002°49'714.6
2018-Feb-23 23:30N 50°03' W 002°38'814.7
2018-Feb-23 22:59N 50°04' W 002°26'1615.4
2018-Feb-23 21:57N 50°08' W 002°02'716.2
2018-Feb-23 21:30N 50°10' W 001°51'816.8
2018-Feb-23 21:00N 50°13' W 001°39'917.3
2018-Feb-23 20:30N 50°15' W 001°26'917.6
2018-Feb-23 20:00N 50°17' W 001°12'1018.0
2018-Feb-23 19:28N 50°20' W 000°58'1417.7
2018-Feb-23 18:42N 50°23' W 000°37'417.5
2018-Feb-23 18:28N 50°25' W 000°31'817.2
2018-Feb-23 18:00N 50°27' W 000°19'816.8
2018-Feb-23 17:30N 50°29' W 000°06'816.5
2018-Feb-23 17:00N 50°31' E 000°06'816.1
2018-Feb-23 16:30N 50°33' E 000°18'815.6
2018-Feb-23 16:00N 50°35' E 000°30'815.2
2018-Feb-23 15:30N 50°39' E 000°41'815.2
2018-Feb-23 15:00N 50°43' E 000°51'815.2
2018-Feb-23 14:30N 50°47' E 001°01'815.6
2018-Feb-23 14:00N 50°52' E 001°11'816.2
2018-Feb-23 13:31N 50°57' E 001°21'917.6
2018-Feb-23 13:00N 51°03' E 001°30'918.3
2018-Feb-23 12:30N 51°10' E 001°41'917.6
2018-Feb-23 12:00N 51°17' E 001°49'917.3
2018-Feb-23 11:30N 51°25' E 001°55'816.5
2018-Feb-23 11:00N 51°31' E 002°04'816.2
2018-Feb-23 10:30N 51°36' E 002°14'815.8
2018-Feb-23 10:00N 51°42' E 002°21'612.3
2018-Feb-23 09:30N 51°47' E 002°27'43715.2
2018-Feb-22 04:49N 57°46' E 009°39'516.7
2018-Feb-22 04:30N 57°47' E 009°49'816.7
2018-Feb-22 04:00N 57°49' E 010°05'816.9
2018-Feb-22 03:30N 57°49' E 010°20'917.1
2018-Feb-22 03:00N 57°50' E 010°36'612.4
2018-Feb-22 02:30N 57°49' E 010°48'611.7
2018-Feb-22 02:00N 57°44' E 010°43'3 6.1
2018-Feb-22 01:27N 57°41' E 010°39'0 0.2
2018-Feb-22 00:57N 57°41' E 010°39'0 0.0
2018-Feb-22 00:30N 57°41' E 010°39'0 0.0
2018-Feb-21 23:57N 57°41' E 010°39'0 0.0
2018-Feb-21 23:30N 57°41' E 010°39'0 0.0
2018-Feb-21 23:00N 57°41' E 010°39'0 0.0
2018-Feb-21 22:30N 57°41' E 010°39'0 0.0
2018-Feb-21 21:57N 57°41' E 010°39'0 0.0
2018-Feb-21 21:30N 57°41' E 010°39'0 0.0
2018-Feb-21 21:00N 57°41' E 010°39'0 0.1
2018-Feb-21 20:30N 57°41' E 010°39'0 0.8
2018-Feb-21 20:00N 57°42' E 010°39'4 8.3
2018-Feb-21 19:30N 57°44' E 010°45'611.7
2018-Feb-21 19:00N 57°50' E 010°42'815.3
2018-Feb-21 18:30N 57°56' E 010°34'816.9
2018-Feb-21 18:01N 58°03' E 010°25'816.7
2018-Feb-21 17:31N 58°10' E 010°16'3316.8
2018-Feb-21 15:34N 58°40' E 009°51'117.1
2018-Feb-21 15:30N 58°41' E 009°50'917.2
2018-Feb-21 15:00N 58°49' E 009°47'510.3
2018-Feb-21 14:30N 58°55' E 009°46'611.4
2018-Feb-21 13:59N 59°00' E 009°47'4 8.1
2018-Feb-21 13:30N 59°03' E 009°41'4 7.4
2018-Feb-21 13:00N 59°06' E 009°37'1 1.0
2018-Feb-21 12:30N 59°06' E 009°36'0 0.0
2018-Feb-21 12:00N 59°06' E 009°36'0 0.0
2018-Feb-21 11:30N 59°06' E 009°36'0 0.0
2018-Feb-21 11:00N 59°06' E 009°36'0 0.0
2018-Feb-21 10:30N 59°06' E 009°36'0 0.0
2018-Feb-21 10:00N 59°06' E 009°36'0 0.0
2018-Feb-21 09:30N 59°06' E 009°36'0 0.0
2018-Feb-21 09:00N 59°06' E 009°36'0 0.0
2018-Feb-21 08:30N 59°06' E 009°36'0 0.0
2018-Feb-21 08:00N 59°06' E 009°36'0 0.0
2018-Feb-21 07:30N 59°06' E 009°36'0 0.0
2018-Feb-21 07:00N 59°06' E 009°36'0 0.0
2018-Feb-21 06:30N 59°06' E 009°36'0 0.0
2018-Feb-21 06:00N 59°06' E 009°36'0 0.0
2018-Feb-21 05:30N 59°06' E 009°36'0 0.0
2018-Feb-21 05:00N 59°06' E 009°36'0 0.0
2018-Feb-21 04:30N 59°06' E 009°36'0 0.0
2018-Feb-21 04:00N 59°06' E 009°36'0 0.0
2018-Feb-21 03:30N 59°06' E 009°36'0 0.0
2018-Feb-21 03:00N 59°06' E 009°36'0 0.0
2018-Feb-21 02:30N 59°06' E 009°36'0 0.0
2018-Feb-21 02:00N 59°06' E 009°36'0 0.0
2018-Feb-21 01:30N 59°06' E 009°36'0 0.0
2018-Feb-21 01:00N 59°06' E 009°36'0 0.0
2018-Feb-21 00:30N 59°06' E 009°36'0 0.0
2018-Feb-21 00:00N 59°06' E 009°36'0 0.0
2018-Feb-20 23:30N 59°06' E 009°36'0 0.0
2018-Feb-20 23:00N 59°06' E 009°36'0 0.0
2018-Feb-20 22:30N 59°06' E 009°36'0 0.0
2018-Feb-20 22:00N 59°06' E 009°36'0 0.0
2018-Feb-20 21:30N 59°06' E 009°36'0 0.0
2018-Feb-20 21:00N 59°06' E 009°36'0 0.0
2018-Feb-20 20:30N 59°06' E 009°36'0 0.0
2018-Feb-20 20:00N 59°06' E 009°36'0 0.0
2018-Feb-20 19:30N 59°06' E 009°36'0 0.0
2018-Feb-20 19:00N 59°06' E 009°36'0 0.0
2018-Feb-20 18:30N 59°06' E 009°36'0 0.0
2018-Feb-20 18:00N 59°06' E 009°36'0 0.0
2018-Feb-20 17:30N 59°06' E 009°36'0 0.0
2018-Feb-20 17:00N 59°06' E 009°36'0 0.0
2018-Feb-20 16:30N 59°06' E 009°36'0 0.0
2018-Feb-20 16:00N 59°06' E 009°36'0 0.0
2018-Feb-20 15:30N 59°06' E 009°36'0 0.0
2018-Feb-20 15:00N 59°06' E 009°36'0 0.0
2018-Feb-20 14:30N 59°06' E 009°36'0 0.0
2018-Feb-20 14:00N 59°06' E 009°36'0 0.0
2018-Feb-20 13:30N 59°06' E 009°36'0 0.0
2018-Feb-20 13:00N 59°06' E 009°36'0 0.0
2018-Feb-20 12:30N 59°06' E 009°36'0 0.0
2018-Feb-20 12:00N 59°06' E 009°36'0 0.0
2018-Feb-20 11:30N 59°06' E 009°36'0 0.0
2018-Feb-20 11:00N 59°06' E 009°36'0 0.0
2018-Feb-20 10:30N 59°06' E 009°36'0 0.0
2018-Feb-20 10:00N 59°06' E 009°36'0 0.0
2018-Feb-20 09:30N 59°06' E 009°36'0 0.0
2018-Feb-20 09:00N 59°06' E 009°36'0 0.0
2018-Feb-20 08:30N 59°06' E 009°36'0 0.0
2018-Feb-20 08:00N 59°06' E 009°36'0 0.0
2018-Feb-20 07:30N 59°06' E 009°36'0 0.0
2018-Feb-20 07:00N 59°06' E 009°36'0 0.0
2018-Feb-20 06:30N 59°06' E 009°36'0 0.0
2018-Feb-20 06:00N 59°06' E 009°36'0 0.0
2018-Feb-20 05:30N 59°06' E 009°36'0 0.0
2018-Feb-20 05:00N 59°06' E 009°36'0 0.0
2018-Feb-20 04:30N 59°06' E 009°36'0 0.0
2018-Feb-20 04:00N 59°06' E 009°36'0 0.0
2018-Feb-20 03:30N 59°06' E 009°36'0 0.0
2018-Feb-20 03:00N 59°06' E 009°36'1 1.1
2018-Feb-20 02:30N 59°06' E 009°37'1 1.6
2018-Feb-20 01:59N 59°06' E 009°37'0 0.0
2018-Feb-20 01:29N 59°06' E 009°37'0 0.0
2018-Feb-20 00:59N 59°06' E 009°37'0 0.0
2018-Feb-20 00:29N 59°06' E 009°37'0 0.0
2018-Feb-19 23:59N 59°06' E 009°37'0 0.0
2018-Feb-19 23:29N 59°06' E 009°37'0 0.1
2018-Feb-19 22:59N 59°06' E 009°37'0 0.0
2018-Feb-19 22:29N 59°06' E 009°37'0 0.1
2018-Feb-19 21:59N 59°06' E 009°37'0 0.0
2018-Feb-19 21:29N 59°06' E 009°37'0 0.0
2018-Feb-19 20:59N 59°06' E 009°37'0 0.0
2018-Feb-19 20:29N 59°06' E 009°37'0 0.0
2018-Feb-19 19:59N 59°06' E 009°37'0 0.0
2018-Feb-19 19:29N 59°06' E 009°37'0 0.0
2018-Feb-19 18:59N 59°06' E 009°37'0 0.0
2018-Feb-19 18:29N 59°06' E 009°37'0 0.0
2018-Feb-19 17:59N 59°06' E 009°37'0 0.0
2018-Feb-19 17:29N 59°06' E 009°37'0 0.1
2018-Feb-19 16:59N 59°06' E 009°37'0 0.0
2018-Feb-19 16:29N 59°06' E 009°37'0 0.0
2018-Feb-19 15:59N 59°06' E 009°37'0 0.0
2018-Feb-19 15:29N 59°06' E 009°37'0 0.0
2018-Feb-19 14:59N 59°06' E 009°37'0 0.0
2018-Feb-19 14:29N 59°06' E 009°37'0 0.0
2018-Feb-19 13:59N 59°06' E 009°37'0 0.0
2018-Feb-19 13:29N 59°06' E 009°37'0 0.0
2018-Feb-19 12:59N 59°06' E 009°37'0 0.0
2018-Feb-19 12:29N 59°06' E 009°37'0 0.0
2018-Feb-19 11:59N 59°06' E 009°37'0 0.1
2018-Feb-19 11:29N 59°06' E 009°37'2 4.1
2018-Feb-19 11:00N 59°05' E 009°38'3 6.8
2018-Feb-19 10:30N 59°02' E 009°43'4 7.3
2018-Feb-19 10:01N 58°59' E 009°47'3 5.9
2018-Feb-19 09:30N 58°56' E 009°47'5 9.5
2018-Feb-19 09:00N 58°52' E 009°49'3 6.6
2018-Feb-19 08:30N 58°48' E 009°50'4 7.5
2018-Feb-19 08:00N 58°45' E 009°51'510.1
2018-Feb-19 07:31N 58°40' E 009°55'7513.5
2018-Feb-19 01:59N 57°39' E 008°32'715.5
2018-Feb-19 01:30N 57°34' E 008°22'816.1
2018-Feb-19 00:59N 57°29' E 008°10'815.8
2018-Feb-19 00:29N 57°24' E 007°58'35616.1
2018-Feb-18 02:18N 52°16' E 002°47'716.1
2018-Feb-18 01:50N 52°10' E 002°41'516.3
2018-Feb-18 01:30N 52°04' E 002°42'915.4
2018-Feb-18 00:56N 51°55' E 002°40'715.5
2018-Feb-18 00:29N 51°49' E 002°37'715.1
2018-Feb-18 00:00N 51°43' E 002°30'714.8
2018-Feb-17 23:30N 51°37' E 002°23'714.4
2018-Feb-17 23:00N 51°31' E 002°16'714.0
2018-Feb-17 22:31N 51°25' E 002°12'713.6
2018-Feb-17 22:00N 51°18' E 002°08'612.9
2018-Feb-17 21:30N 51°13' E 002°02'612.8
2018-Feb-17 21:00N 51°10' E 001°53'612.4
2018-Feb-17 20:30N 51°07' E 001°45'612.3
2018-Feb-17 20:00N 51°02' E 001°39'612.4
2018-Feb-17 19:30N 50°58' E 001°31'612.9
2018-Feb-17 19:01N 50°52' E 001°26'713.8
2018-Feb-17 18:30N 50°46' E 001°22'713.5
2018-Feb-17 17:59N 50°40' E 001°16'714.5
2018-Feb-17 17:29N 50°35' E 001°08'1613.8
2018-Feb-17 16:20N 50°28' E 000°45'514.5
2018-Feb-17 16:00N 50°27' E 000°38'914.5
2018-Feb-17 15:21N 50°25' E 000°23'514.4
2018-Feb-17 15:00N 50°24' E 000°16'714.4
2018-Feb-17 14:30N 50°22' E 000°05'714.5
2018-Feb-17 14:00N 50°20' W 000°06'714.6
2018-Feb-17 13:31N 50°18' W 000°17'714.7
2018-Feb-17 13:00N 50°17' W 000°28'815.1
2018-Feb-17 12:30N 50°15' W 000°40'815.9
2018-Feb-17 12:00N 50°13' W 000°52'816.8
2018-Feb-17 11:30N 50°10' W 001°05'917.3
2018-Feb-17 11:00N 50°07' W 001°17'918.1
2018-Feb-17 10:30N 50°05' W 001°31'918.4
2018-Feb-17 10:01N 50°02' W 001°44'918.9
2018-Feb-17 09:31N 49°60' W 001°59'1019.0
2018-Feb-17 09:00N 49°58' W 002°13'2018.4
2018-Feb-17 07:55N 49°53' W 002°43'817.7
2018-Feb-17 07:29N 49°50' W 002°54'  

Dump ship's entire track history